Time;durP1;ratioP1;P1;durP2;ratioP2;P2;SDS_P1;SDS_P2;PMS_P1;PMS_P2;Temp;Humidity;BMP_temperature;BMP_pressure;BME280_temperature;BME280_humidity;BME280_pressure;Samples;Min_cycle;Max_cycle;Signal;HPM_P1;HPM_P2
2022/12/07 00:01:18;;;;;;;123.03;56.80;;;4.30;99.90;;;;;;5013815;28;20208;-66
2022/12/07 00:03:45;;;;;;;108.57;52.33;;;4.30;99.90;;;;;;5014052;28;20221;-65
2022/12/07 00:06:13;;;;;;;110.80;52.73;;;4.30;99.90;;;;;;5013753;28;20183;-65
2022/12/07 00:08:40;;;;;;;103.77;53.17;;;4.30;99.90;;;;;;5013716;28;20180;-66
2022/12/07 00:11:08;;;;;;;112.20;54.77;;;4.40;99.90;;;;;;5013828;28;20657;-66
2022/12/07 00:13:35;;;;;;;106.57;54.50;;;4.40;99.90;;;;;;5014262;28;20704;-65
2022/12/07 00:16:03;;;;;;;104.50;53.20;;;4.40;99.90;;;;;;5013952;28;20337;-65
2022/12/07 00:18:29;;;;;;;98.50;53.00;;;4.30;99.90;;;;;;5013641;28;20175;-65
2022/12/07 00:21:00;;;;;;;99.83;51.53;;;4.30;99.90;;;;;;5013675;28;20563;-66
2022/12/07 00:23:26;;;;;;;99.87;50.43;;;4.30;99.90;;;;;;5013639;28;20168;-65
2022/12/07 00:25:52;;;;;;;104.27;51.77;;;4.30;99.90;;;;;;5013362;28;20294;-66
2022/12/07 00:28:17;;;;;;;95.57;51.33;;;4.30;99.90;;;;;;5030466;28;20194;-65
2022/12/07 00:30:43;;;;;;;99.60;52.10;;;4.30;99.90;;;;;;5033181;28;20206;-65
2022/12/07 00:33:09;;;;;;;102.37;52.90;;;4.40;99.90;;;;;;5033477;28;20183;-67
2022/12/07 00:35:34;;;;;;;104.20;51.53;;;4.40;99.90;;;;;;5016468;28;20202;-67
2022/12/07 00:38:00;;;;;;;94.33;50.03;;;4.40;99.90;;;;;;5033977;28;20245;-66
2022/12/07 00:40:26;;;;;;;94.83;49.67;;;4.40;99.90;;;;;;5035630;28;20581;-67
2022/12/07 00:42:51;;;;;;;93.77;48.07;;;4.40;99.90;;;;;;5039743;28;20191;-67
2022/12/07 00:45:17;;;;;;;98.63;50.03;;;4.40;99.90;;;;;;5018494;28;20208;-67
2022/12/07 00:47:43;;;;;;;89.70;48.60;;;4.40;99.90;;;;;;5035112;28;20659;-67
2022/12/07 00:50:09;;;;;;;86.83;46.77;;;4.40;99.90;;;;;;5034173;28;20526;-67
2022/12/07 00:52:34;;;;;;;88.30;46.77;;;4.40;99.90;;;;;;5015561;28;20206;-67
2022/12/07 00:55:00;;;;;;;87.83;48.53;;;4.50;99.90;;;;;;5033077;28;20251;-67
2022/12/07 00:57:26;;;;;;;87.23;48.07;;;4.40;99.90;;;;;;5032969;28;20198;-67
2022/12/07 00:59:55;;;;;;;81.70;46.83;;;4.40;99.90;;;;;;5033022;28;20534;-67
2022/12/07 01:02:21;;;;;;;79.97;44.13;;;4.40;99.90;;;;;;5033466;28;20191;-67
2022/12/07 01:04:47;;;;;;;82.13;46.67;;;4.40;99.90;;;;;;5033979;28;20589;-67
2022/12/07 01:07:12;;;;;;;89.23;44.97;;;4.40;99.90;;;;;;5034036;28;20263;-67
2022/12/07 01:09:38;;;;;;;81.97;43.77;;;4.40;99.90;;;;;;5036693;28;20176;-67
2022/12/07 01:12:04;;;;;;;88.50;45.73;;;4.50;99.90;;;;;;5036470;28;20199;-67
2022/12/07 01:14:30;;;;;;;90.20;48.70;;;4.50;99.90;;;;;;5036850;28;20258;-67
2022/12/07 01:16:55;;;;;;;86.60;47.53;;;4.50;99.90;;;;;;5036450;28;20206;-67
2022/12/07 01:19:21;;;;;;;92.50;49.43;;;4.40;99.90;;;;;;5036493;28;20167;-67
2022/12/07 01:21:47;;;;;;;85.27;48.07;;;4.50;99.90;;;;;;5036409;28;20664;-67
2022/12/07 01:24:12;;;;;;;90.73;47.60;;;4.50;99.90;;;;;;5036824;28;20251;-67
2022/12/07 01:26:38;;;;;;;89.43;49.23;;;4.50;99.90;;;;;;5036085;28;20218;-67
2022/12/07 01:29:04;;;;;;;91.70;49.40;;;4.50;99.90;;;;;;5036318;28;20175;-67
2022/12/07 01:31:30;;;;;;;82.67;47.37;;;4.50;99.90;;;;;;5036268;28;20710;-67
2022/12/07 01:33:58;;;;;;;89.10;48.67;;;4.50;99.90;;;;;;5036333;28;20182;-67
2022/12/07 01:36:30;;;;;;;90.20;47.53;;;4.50;99.90;;;;;;5018336;28;20207;-67
2022/12/07 01:39:02;;;;;;;91.03;47.97;;;4.50;99.90;;;;;;5018368;28;20266;-67
2022/12/07 01:41:31;;;;;;;80.27;46.13;;;4.50;99.90;;;;;;5036056;28;20210;-67
2022/12/07 01:44:18;;;;;;;82.50;46.47;;;4.50;99.90;;;;;;5018217;28;20179;-67
2022/12/07 01:46:49;;;;;;;77.50;45.40;;;4.50;99.90;;;;;;5035867;28;20178;-67
2022/12/07 01:49:37;;;;;;;78.17;44.83;;;4.50;99.90;;;;;;5036021;28;20221;-67
2022/12/07 01:52:27;;;;;;;83.97;47.30;;;4.50;99.90;;;;;;5035284;28;20210;-67
2022/12/07 01:54:57;;;;;;;84.93;46.13;;;4.50;99.90;;;;;;5018172;28;20641;-67
2022/12/07 01:57:23;;;;;;;78.47;46.60;;;4.50;99.90;;;;;;5035814;28;20199;-67
2022/12/07 01:59:51;;;;;;;76.20;43.87;;;4.50;99.90;;;;;;5035681;28;20174;-67
2022/12/07 02:02:26;;;;;;;85.23;46.13;;;4.40;99.90;;;;;;5035573;28;20282;-67
2022/12/07 02:04:54;;;;;;;88.37;47.73;;;4.50;99.90;;;;;;5035703;28;20209;-67
2022/12/07 02:07:22;;;;;;;73.57;42.57;;;4.50;99.90;;;;;;5036095;28;20172;-67
2022/12/07 02:09:47;;;;;;;78.00;44.40;;;4.50;99.90;;;;;;5035488;28;20175;-67
2022/12/07 02:12:13;;;;;;;78.80;45.30;;;4.50;99.90;;;;;;5035354;28;20730;-67
2022/12/07 02:14:39;;;;;;;80.17;45.23;;;4.50;99.90;;;;;;5035738;28;20215;-67
2022/12/07 02:17:14;;;;;;;80.33;46.63;;;4.50;99.90;;;;;;5035345;28;20199;-67
2022/12/07 02:19:55;;;;;;;77.20;44.60;;;4.50;99.90;;;;;;5034399;28;20531;-67
2022/12/07 02:22:39;;;;;;;79.53;43.53;;;4.50;99.90;;;;;;5035251;28;20195;-67
2022/12/07 02:25:41;;;;;;;81.20;43.83;;;4.50;99.90;;;;;;5017503;28;20254;-67
2022/12/07 02:28:29;;;;;;;75.07;44.13;;;4.50;99.90;;;;;;5035002;28;20187;-67
2022/12/07 02:31:01;;;;;;;80.77;45.27;;;4.60;99.90;;;;;;5017310;28;20199;-67
2022/12/07 02:33:36;;;;;;;70.13;42.43;;;4.50;99.90;;;;;;5017345;28;20261;-67
2022/12/07 02:36:28;;;;;;;71.77;41.33;;;4.50;99.90;;;;;;5034998;28;20202;-67
2022/12/07 02:39:12;;;;;;;69.77;39.53;;;4.50;99.90;;;;;;5034534;28;20726;-67
2022/12/07 02:41:44;;;;;;;67.30;40.40;;;4.50;99.90;;;;;;5034966;28;20197;-67
2022/12/07 02:44:20;;;;;;;62.60;38.40;;;4.50;99.90;;;;;;5034869;28;20163;-67
2022/12/07 02:47:11;;;;;;;70.10;40.37;;;4.60;99.90;;;;;;5035254;28;20167;-67
2022/12/07 02:49:40;;;;;;;67.47;39.87;;;4.50;99.90;;;;;;5034235;28;20191;-67
2022/12/07 02:52:06;;;;;;;71.60;39.63;;;4.50;99.90;;;;;;5017265;28;20707;-67
2022/12/07 02:54:32;;;;;;;66.20;39.37;;;4.50;99.90;;;;;;5034756;28;20202;-67
2022/12/07 02:57:10;;;;;;;64.40;39.00;;;4.50;99.90;;;;;;5034355;28;20671;-67
2022/12/07 03:00:05;;;;;;;69.20;38.40;;;4.50;99.90;;;;;;5017151;28;20177;-67
2022/12/07 03:02:30;;;;;;;58.13;36.50;;;4.50;99.90;;;;;;5034538;28;20188;-67
2022/12/07 03:05:33;;;;;;;65.10;38.53;;;4.50;99.90;;;;;;5034583;28;20183;-67
2022/12/07 03:08:23;;;;;;;61.17;35.77;;;4.50;99.90;;;;;;5034392;28;20183;-67
2022/12/07 03:11:02;;;;;;;60.37;38.03;;;4.50;99.90;;;;;;5034582;28;20618;-66
2022/12/07 03:14:03;;;;;;;63.27;37.93;;;4.50;99.90;;;;;;5034389;28;20234;-67
2022/12/07 03:16:46;;;;;;;61.03;37.67;;;4.50;99.90;;;;;;5016484;28;20202;-67
2022/12/07 03:19:18;;;;;;;57.87;36.13;;;4.50;99.90;;;;;;5034916;28;20671;-66
2022/12/07 03:21:52;;;;;;;62.60;36.50;;;4.50;99.90;;;;;;5034179;28;20191;-65
2022/12/07 03:24:24;;;;;;;59.10;36.60;;;4.40;99.90;;;;;;5016490;28;20174;-65
2022/12/07 03:27:01;;;;;;;59.47;34.60;;;4.40;99.90;;;;;;5033916;28;20193;-65
2022/12/07 03:29:59;;;;;;;62.87;36.73;;;4.40;99.90;;;;;;5016294;28;20210;-65
2022/12/07 03:32:40;;;;;;;53.97;35.27;;;4.40;99.90;;;;;;5030748;28;20242;-65
2022/12/07 03:35:16;;;;;;;62.43;35.57;;;4.40;99.90;;;;;;5034021;28;20190;-65
2022/12/07 03:37:45;;;;;;;54.47;33.00;;;4.30;99.90;;;;;;5034470;28;20155;-65
2022/12/07 03:40:40;;;;;;;59.83;35.37;;;4.30;99.90;;;;;;5033835;28;20175;-65
2022/12/07 03:43:06;;;;;;;60.60;34.23;;;4.20;99.90;;;;;;5033693;28;20159;-65
2022/12/07 03:45:38;;;;;;;55.77;35.03;;;4.20;99.90;;;;;;5016054;28;20179;-65
2022/12/07 03:48:40;;;;;;;59.13;34.67;;;4.30;99.90;;;;;;5034126;28;20154;-65
2022/12/07 03:51:30;;;;;;;54.03;31.90;;;4.30;99.90;;;;;;5033934;28;20190;-65
2022/12/07 03:54:43;;;;;;;51.33;32.77;;;4.30;99.90;;;;;;5034261;28;20523;-65
2022/12/07 03:57:11;;;;;;;51.23;32.70;;;4.30;99.90;;;;;;4963525;28;20767;-66
2022/12/07 03:59:39;;;;;;;51.03;32.43;;;4.30;99.90;;;;;;5033629;28;20177;-65
2022/12/07 04:02:06;;;;;;;51.57;31.30;;;4.30;99.90;;;;;;5033583;28;20191;-66
2022/12/07 04:04:33;;;;;;;48.10;31.43;;;4.30;99.90;;;;;;5033316;28;20262;-65
2022/12/07 04:06:59;;;;;;;54.77;32.67;;;4.30;99.90;;;;;;5034002;28;20221;-65
2022/12/07 04:09:25;;;;;;;54.67;33.83;;;4.30;99.90;;;;;;5033671;28;20221;-65
2022/12/07 04:11:50;;;;;;;53.53;32.63;;;4.30;99.90;;;;;;5033263;28;20243;-65
2022/12/07 04:14:19;;;;;;;53.23;33.77;;;4.30;99.90;;;;;;5033698;28;20171;-66
2022/12/07 04:16:51;;;;;;;57.27;35.40;;;4.20;99.90;;;;;;5015884;28;20234;-66
2022/12/07 04:19:19;;;;;;;57.00;35.03;;;4.20;99.90;;;;;;5033410;28;20578;-65
2022/12/07 04:21:45;;;;;;;56.37;34.80;;;4.20;99.90;;;;;;5033297;28;20187;-66
2022/12/07 04:24:13;;;;;;;55.10;35.60;;;4.10;99.90;;;;;;5015589;28;20174;-65
2022/12/07 04:26:38;;;;;;;55.23;33.17;;;4.10;99.90;;;;;;5033537;28;20191;-65
2022/12/07 04:29:04;;;;;;;58.07;32.13;;;4.10;99.90;;;;;;5033754;28;20162;-65
2022/12/07 04:31:30;;;;;;;55.37;33.17;;;4.10;99.90;;;;;;5033130;28;20199;-66
2022/12/07 04:33:56;;;;;;;49.23;29.93;;;4.10;99.90;;;;;;5033278;28;20160;-65
2022/12/07 04:36:22;;;;;;;55.43;31.23;;;4.10;99.90;;;;;;5033109;28;20229;-65
2022/12/07 04:38:48;;;;;;;52.10;33.37;;;4.00;99.90;;;;;;5015408;28;20183;-65
2022/12/07 04:41:14;;;;;;;49.57;29.83;;;4.00;99.90;;;;;;5032874;28;20225;-66
2022/12/07 04:43:39;;;;;;;48.53;29.07;;;4.00;99.90;;;;;;5036680;28;20175;-65
2022/12/07 04:46:05;;;;;;;51.17;30.83;;;4.00;99.90;;;;;;5019346;28;20179;-65
2022/12/07 04:48:31;;;;;;;49.93;31.17;;;4.00;99.90;;;;;;5037473;28;20597;-65
2022/12/07 04:50:57;;;;;;;48.50;31.17;;;4.10;99.90;;;;;;5036977;28;20605;-65
2022/12/07 04:53:22;;;;;;;43.63;27.90;;;4.00;99.90;;;;;;5037258;28;20175;-65
2022/12/07 04:55:48;;;;;;;46.10;29.27;;;4.00;99.90;;;;;;5037217;28;20195;-66
2022/12/07 04:58:14;;;;;;;48.77;28.73;;;4.00;99.90;;;;;;5036790;28;20187;-65
2022/12/07 05:00:40;;;;;;;47.27;29.77;;;4.00;99.90;;;;;;5019087;28;20171;-66
2022/12/07 05:03:06;;;;;;;48.40;30.33;;;4.00;99.90;;;;;;5036858;28;20175;-65
2022/12/07 05:05:31;;;;;;;42.57;26.27;;;3.90;99.90;;;;;;5036811;28;20183;-65
2022/12/07 05:07:57;;;;;;;47.53;29.10;;;3.90;99.90;;;;;;5036981;28;20174;-65
2022/12/07 05:10:23;;;;;;;40.03;27.90;;;3.90;99.90;;;;;;5036700;28;20603;-65
2022/12/07 05:12:49;;;;;;;43.37;27.73;;;3.90;99.90;;;;;;5036694;28;20668;-65
2022/12/07 05:15:15;;;;;;;40.43;28.13;;;4.00;99.90;;;;;;5036675;28;20258;-65
2022/12/07 05:17:41;;;;;;;43.03;27.07;;;4.00;99.90;;;;;;5036838;28;20175;-65
2022/12/07 05:20:08;;;;;;;42.80;26.50;;;3.90;99.90;;;;;;5036481;28;20666;-65
2022/12/07 05:22:34;;;;;;;44.93;27.50;;;4.00;99.90;;;;;;5036322;28;20254;-65
2022/12/07 05:25:00;;;;;;;44.43;28.93;;;3.90;99.90;;;;;;5036389;28;20179;-65
2022/12/07 05:27:26;;;;;;;40.83;26.90;;;3.90;99.90;;;;;;5036149;28;20210;-66
2022/12/07 05:29:51;;;;;;;47.90;27.90;;;3.90;99.90;;;;;;5036338;28;20185;-65
2022/12/07 05:32:18;;;;;;;40.13;27.80;;;3.90;99.90;;;;;;5036241;28;20686;-65
2022/12/07 05:34:43;;;;;;;47.30;26.23;;;4.00;99.90;;;;;;5036216;28;20233;-65
2022/12/07 05:37:09;;;;;;;41.33;27.23;;;4.00;99.90;;;;;;5036029;28;20203;-65
2022/12/07 05:39:35;;;;;;;42.13;26.30;;;4.00;99.90;;;;;;5036171;28;20635;-66
2022/12/07 05:42:13;;;;;;;44.57;26.80;;;4.00;99.90;;;;;;5035872;28;20229;-63
2022/12/07 05:44:46;;;;;;;43.13;24.90;;;4.00;99.90;;;;;;5036598;28;20168;-66
2022/12/07 05:47:13;;;;;;;40.07;25.70;;;4.00;99.90;;;;;;5035990;28;20175;-66
2022/12/07 05:49:39;;;;;;;44.33;26.93;;;3.90;99.90;;;;;;5018128;28;20194;-66
2022/12/07 05:52:06;;;;;;;35.90;25.10;;;3.90;99.90;;;;;;5036495;28;20245;-66
2022/12/07 05:54:32;;;;;;;37.43;25.27;;;3.90;99.90;;;;;;5035819;28;20179;-65
2022/12/07 05:56:58;;;;;;;44.27;25.97;;;3.90;99.90;;;;;;5035554;28;20235;-65
2022/12/07 05:59:24;;;;;;;37.87;24.33;;;3.90;99.90;;;;;;5035767;28;20179;-65
2022/12/07 06:01:50;;;;;;;39.83;25.03;;;3.80;99.90;;;;;;5035598;28;20202;-65
2022/12/07 06:04:17;;;;;;;41.63;25.57;;;3.80;99.90;;;;;;5035899;28;20179;-65
2022/12/07 06:06:42;;;;;;;35.17;23.93;;;3.80;99.90;;;;;;5035600;28;20212;-65
2022/12/07 06:09:08;;;;;;;40.80;25.93;;;3.80;99.90;;;;;;5035614;28;20602;-65
2022/12/07 06:14:18;;;;;;;46.53;25.50;;;3.80;99.90;;;;;;5035806;28;20538;-65
2022/12/07 06:16:44;;;;;;;37.53;24.27;;;3.80;99.90;;;;;;5017663;28;20207;-65
2022/12/07 06:19:10;;;;;;;44.57;25.97;;;3.80;99.90;;;;;;5035423;28;20175;-65
2022/12/07 06:21:35;;;;;;;37.60;23.67;;;3.90;99.90;;;;;;5035549;28;20648;-65
2022/12/07 06:24:01;;;;;;;41.20;25.13;;;3.90;99.90;;;;;;5035370;28;20207;-65
2022/12/07 06:26:28;;;;;;;33.53;22.97;;;3.80;99.90;;;;;;5035134;28;20183;-66
2022/12/07 06:28:53;;;;;;;41.53;24.83;;;3.80;99.90;;;;;;5039567;28;20279;-66
2022/12/07 06:31:19;;;;;;;39.20;24.63;;;3.90;99.90;;;;;;5035124;28;20298;-66
2022/12/07 06:33:45;;;;;;;39.00;23.07;;;3.90;99.90;;;;;;5037199;28;20229;-66
2022/12/07 06:36:11;;;;;;;36.33;22.93;;;3.90;99.90;;;;;;5003746;28;20575;-66
2022/12/07 06:38:37;;;;;;;40.30;23.93;;;3.90;99.90;;;;;;5015341;28;20242;-66
2022/12/07 06:41:03;;;;;;;43.80;25.10;;;3.80;99.90;;;;;;5015450;28;20610;-66
2022/12/07 06:43:29;;;;;;;38.13;23.63;;;3.80;99.90;;;;;;5015146;28;20176;-65
2022/12/07 06:45:55;;;;;;;41.13;25.23;;;3.90;99.90;;;;;;5015334;28;20204;-65
2022/12/07 06:48:21;;;;;;;48.37;27.43;;;3.90;99.90;;;;;;5015430;28;20653;-65
2022/12/07 06:50:48;;;;;;;43.10;27.37;;;3.90;99.90;;;;;;5014954;28;20180;-65
2022/12/07 06:53:13;;;;;;;48.57;28.20;;;3.90;99.90;;;;;;5015280;28;20262;-65
2022/12/07 06:55:39;;;;;;;37.67;25.63;;;3.90;99.90;;;;;;5014860;28;20259;-65
2022/12/07 06:58:05;;;;;;;40.60;26.30;;;3.80;99.90;;;;;;5014746;28;20176;-65
2022/12/07 07:00:30;;;;;;;41.50;27.30;;;3.80;99.90;;;;;;5015075;28;20176;-65
2022/12/07 07:02:56;;;;;;;47.93;26.33;;;3.80;99.90;;;;;;5014948;28;20676;-65
2022/12/07 07:05:22;;;;;;;44.97;26.70;;;3.80;99.90;;;;;;5014275;28;20176;-65
2022/12/07 07:07:51;;;;;;;37.17;24.90;;;3.90;99.90;;;;;;5014599;28;20172;-65
2022/12/07 07:10:17;;;;;;;43.93;27.67;;;3.80;99.90;;;;;;5014506;28;20274;-65
2022/12/07 07:12:42;;;;;;;36.30;25.03;;;3.80;99.90;;;;;;5014546;28;20716;-65
2022/12/07 07:15:09;;;;;;;41.17;26.50;;;3.80;99.90;;;;;;5014858;28;20180;-65
2022/12/07 07:17:35;;;;;;;43.90;26.97;;;3.70;99.90;;;;;;5014457;28;20210;-65
2022/12/07 07:20:00;;;;;;;46.60;27.00;;;3.70;99.90;;;;;;5014448;28;20179;-65
2022/12/07 07:22:26;;;;;;;46.90;28.37;;;3.70;99.90;;;;;;5014407;28;20705;-65
2022/12/07 07:24:52;;;;;;;46.57;28.03;;;3.70;99.90;;;;;;5014717;28;20175;-65
2022/12/07 07:27:17;;;;;;;46.03;29.63;;;3.70;99.90;;;;;;5014088;28;20257;-65
2022/12/07 07:29:44;;;;;;;51.97;29.10;;;3.70;99.90;;;;;;5014552;28;20211;-65
2022/12/07 07:32:10;;;;;;;49.20;31.23;;;3.70;99.90;;;;;;5014233;28;20755;-65
2022/12/07 07:34:36;;;;;;;50.80;31.17;;;3.70;99.90;;;;;;5014198;28;20208;-65
2022/12/07 07:37:02;;;;;;;40.87;27.30;;;3.70;99.90;;;;;;5001148;28;20756;-65
2022/12/07 07:39:27;;;;;;;42.07;25.90;;;3.70;99.90;;;;;;4994543;28;20185;-65
2022/12/07 07:41:53;;;;;;;40.60;24.57;;;3.70;99.90;;;;;;4994439;28;20311;-65
2022/12/07 07:44:19;;;;;;;36.20;22.90;;;3.70;99.90;;;;;;4994502;28;20169;-65
2022/12/07 07:46:44;;;;;;;35.80;23.40;;;3.70;99.90;;;;;;4994987;28;20185;-66
2022/12/07 07:49:11;;;;;;;44.93;25.37;;;3.70;99.90;;;;;;4994344;28;20184;-65
2022/12/07 07:51:37;;;;;;;55.33;26.53;;;3.70;99.90;;;;;;4994332;28;20207;-65
2022/12/07 07:54:03;;;;;;;40.63;25.80;;;3.70;99.90;;;;;;4994945;28;20176;-65
2022/12/07 07:56:29;;;;;;;45.97;25.13;;;3.70;99.90;;;;;;4994244;28;20200;-65
2022/12/07 07:58:55;;;;;;;41.53;26.10;;;3.70;99.90;;;;;;4994106;28;20191;-65
2022/12/07 08:01:21;;;;;;;41.20;25.30;;;3.70;99.90;;;;;;4994166;28;20203;-65
2022/12/07 08:03:47;;;;;;;35.90;23.97;;;3.70;99.90;;;;;;4994309;28;20190;-65
2022/12/07 08:06:13;;;;;;;37.80;23.13;;;3.70;99.90;;;;;;4994419;28;20218;-65
2022/12/07 08:08:38;;;;;;;40.20;25.47;;;3.60;99.90;;;;;;4994577;28;20630;-67
2022/12/07 08:11:08;;;;;;;39.00;24.73;;;3.60;99.90;;;;;;4994193;28;20620;-66
2022/12/07 08:13:34;;;;;;;40.93;24.90;;;3.60;99.90;;;;;;5009269;28;20187;-66
2022/12/07 08:16:08;;;;;;;46.57;25.00;;;3.60;99.90;;;;;;4993722;28;20671;-67
2022/12/07 08:18:39;;;;;;;34.60;23.50;;;3.60;99.90;;;;;;5008817;28;20169;-67
2022/12/07 08:21:06;;;;;;;45.70;25.17;;;3.60;99.90;;;;;;4993999;28;20196;-67
2022/12/07 08:23:33;;;;;;;42.23;23.70;;;3.60;99.90;;;;;;5009115;28;20176;-67
2022/12/07 08:26:04;;;;;;;39.00;23.40;;;3.70;99.90;;;;;;5009252;28;20533;-67
2022/12/07 08:28:30;;;;;;;37.13;22.80;;;3.70;99.90;;;;;;4993731;28;20208;-67
2022/12/07 08:31:05;;;;;;;34.80;22.97;;;3.60;99.90;;;;;;4993899;28;20207;-67
2022/12/07 08:33:31;;;;;;;40.90;24.27;;;3.70;99.90;;;;;;4993637;28;20203;-67
2022/12/07 08:36:09;;;;;;;40.23;21.83;;;3.70;99.90;;;;;;4999985;28;20268;-67
2022/12/07 08:38:39;;;;;;;30.97;21.10;;;3.70;99.90;;;;;;5033404;28;20537;-67
2022/12/07 08:41:06;;;;;;;31.00;21.23;;;3.80;99.90;;;;;;5033100;28;20684;-67
2022/12/07 08:43:32;;;;;;;36.57;21.57;;;3.80;99.90;;;;;;5033052;28;20171;-67
2022/12/07 08:46:01;;;;;;;31.20;21.10;;;3.80;99.90;;;;;;5033377;28;20183;-67
2022/12/07 08:48:27;;;;;;;34.10;20.20;;;3.80;99.90;;;;;;5033072;28;20202;-67
2022/12/07 08:50:52;;;;;;;29.33;20.00;;;3.90;99.90;;;;;;5032976;28;20637;-67
2022/12/07 08:53:18;;;;;;;28.93;18.47;;;3.90;99.90;;;;;;5032981;28;20194;-66
2022/12/07 08:55:47;;;;;;;27.10;17.93;;;3.80;99.90;;;;;;5033166;28;20183;-67
2022/12/07 08:58:13;;;;;;;30.63;18.83;;;3.90;99.90;;;;;;5032806;28;20253;-67
2022/12/07 09:00:39;;;;;;;29.63;19.40;;;3.90;99.90;;;;;;5032943;28;20225;-66
2022/12/07 09:03:04;;;;;;;27.73;18.33;;;3.90;99.90;;;;;;5032871;28;20520;-66
2022/12/07 09:05:33;;;;;;;25.17;17.30;;;4.00;99.90;;;;;;5032908;28;20643;-67
2022/12/07 09:08:01;;;;;;;28.67;17.83;;;4.00;99.90;;;;;;5033080;28;20221;-67
2022/12/07 09:10:27;;;;;;;33.13;19.33;;;4.10;99.90;;;;;;5013111;28;20655;-67
2022/12/07 09:12:53;;;;;;;34.37;19.33;;;4.00;99.90;;;;;;5012893;28;20196;-67
2022/12/07 09:15:19;;;;;;;27.30;18.87;;;4.00;99.90;;;;;;4995490;28;20267;-67
2022/12/07 09:17:44;;;;;;;27.37;18.10;;;4.10;99.90;;;;;;5013028;28;20669;-65
2022/12/07 09:20:11;;;;;;;27.53;17.57;;;4.10;99.90;;;;;;5013375;28;20602;-65
2022/12/07 09:22:37;;;;;;;27.90;17.83;;;4.10;99.90;;;;;;5012930;28;20214;-65
2022/12/07 09:25:03;;;;;;;23.67;16.50;;;4.10;99.90;;;;;;5013059;28;20169;-65
2022/12/07 09:27:30;;;;;;;30.23;18.27;;;4.20;99.90;;;;;;5012844;28;20180;-65
2022/12/07 09:29:55;;;;;;;30.43;18.33;;;4.10;99.90;;;;;;5016706;28;20186;-65
2022/12/07 09:32:22;;;;;;;26.93;17.07;;;4.10;99.90;;;;;;5016420;28;20282;-65
2022/12/07 09:34:48;;;;;;;27.30;18.53;;;4.10;99.90;;;;;;5016446;28;20242;-65
2022/12/07 09:37:14;;;;;;;25.73;17.77;;;4.10;99.90;;;;;;5020488;28;20208;-66
2022/12/07 09:39:40;;;;;;;29.93;18.60;;;4.20;99.90;;;;;;5029968;28;20203;-65
2022/12/07 09:42:08;;;;;;;32.20;20.07;;;4.20;99.90;;;;;;5035960;28;20425;-66
2022/12/07 09:44:35;;;;;;;32.17;20.90;;;4.20;99.90;;;;;;5036105;28;20195;-65
2022/12/07 09:47:02;;;;;;;35.63;21.93;;;4.10;99.90;;;;;;5035967;28;20187;-65
2022/12/07 09:49:32;;;;;;;32.87;22.07;;;4.10;99.90;;;;;;5036010;28;20335;-65
2022/12/07 09:52:12;;;;;;;37.53;24.00;;;4.20;99.90;;;;;;5035994;28;20191;-66
2022/12/07 09:54:43;;;;;;;35.97;21.40;;;4.20;99.90;;;;;;5036389;28;20590;-67
2022/12/07 09:57:12;;;;;;;42.80;24.27;;;4.20;99.90;;;;;;5035780;28;20252;-67
2022/12/07 09:59:40;;;;;;;38.80;24.90;;;4.30;99.90;;;;;;5035818;28;20175;-67
2022/12/07 10:02:32;;;;;;;33.33;22.00;;;4.30;99.90;;;;;;5017997;28;20306;-67
2022/12/07 10:04:59;;;;;;;35.33;23.23;;;4.40;99.90;;;;;;5036056;28;20616;-67
2022/12/07 10:07:25;;;;;;;41.23;23.90;;;4.40;99.90;;;;;;5036011;28;20581;-67
2022/12/07 10:09:50;;;;;;;37.53;23.00;;;4.40;99.90;;;;;;5035631;28;20187;-67
2022/12/07 10:12:16;;;;;;;31.70;22.97;;;4.50;99.90;;;;;;5035524;28;20225;-67
2022/12/07 10:15:06;;;;;;;38.27;23.13;;;4.50;99.90;;;;;;5017840;28;20183;-67
2022/12/07 10:17:43;;;;;;;30.97;22.33;;;4.50;99.90;;;;;;5035749;28;20668;-67
2022/12/07 10:20:12;;;;;;;36.33;23.13;;;4.40;99.90;;;;;;5017746;28;20175;-67
2022/12/07 10:22:38;;;;;;;37.70;24.03;;;4.40;99.90;;;;;;5017636;28;20199;-67
2022/12/07 10:25:32;;;;;;;37.57;24.07;;;4.50;99.90;;;;;;5035541;28;20214;-67
2022/12/07 10:28:18;;;;;;;42.07;24.40;;;4.50;99.90;;;;;;5033201;28;20675;-67
2022/12/07 10:30:49;;;;;;;33.27;25.27;;;4.70;99.90;;;;;;5035493;28;20228;-66
2022/12/07 10:33:35;;;;;;;41.27;24.90;;;4.60;99.90;;;;;;5035219;28;20183;-67
2022/12/07 10:36:17;;;;;;;37.70;24.57;;;4.60;99.90;;;;;;5018380;28;20221;-67
2022/12/07 10:39:17;;;;;;;38.67;25.67;;;4.70;99.90;;;;;;5035107;28;20187;-67
2022/12/07 10:41:58;;;;;;;33.77;24.20;;;4.70;99.90;;;;;;5034838;28;20544;-67
2022/12/07 10:44:26;;;;;;;41.87;26.60;;;4.70;99.90;;;;;;5035019;28;20175;-67
2022/12/07 10:47:19;;;;;;;35.73;27.00;;;4.70;99.90;;;;;;5035437;28;20221;-67
2022/12/07 10:50:06;;;;;;;41.77;27.37;;;4.70;99.90;;;;;;5035332;28;20222;-67
2022/12/07 10:52:48;;;;;;;42.70;28.30;;;4.60;99.90;;;;;;5034793;28;20195;-67
2022/12/07 10:55:54;;;;;;;41.70;27.27;;;4.60;99.90;;;;;;5050217;28;20183;-67
2022/12/07 10:58:40;;;;;;;42.53;27.97;;;4.60;99.90;;;;;;5034723;28;20250;-67
2022/12/07 11:01:33;;;;;;;36.23;25.80;;;4.70;99.90;;;;;;5034949;28;20191;-67
2022/12/07 11:04:25;;;;;;;39.30;26.10;;;4.60;99.90;;;;;;5034664;28;20148;-67
2022/12/07 11:06:53;;;;;;;42.27;25.40;;;4.70;99.90;;;;;;5034632;28;20156;-67
2022/12/07 11:09:34;;;;;;;40.63;25.10;;;4.90;99.90;;;;;;5034604;28;20190;-67
2022/12/07 11:12:10;;;;;;;42.50;25.33;;;4.90;99.90;;;;;;5033107;28;20202;-67
2022/12/07 11:14:50;;;;;;;40.37;23.93;;;4.90;99.90;;;;;;5034668;28;20159;-67
2022/12/07 11:17:41;;;;;;;37.60;23.80;;;5.00;99.90;;;;;;5034657;28;20265;-67
2022/12/07 11:20:52;;;;;;;36.70;26.13;;;5.20;99.90;;;;;;5033102;28;20171;-67
2022/12/07 11:23:45;;;;;;;35.07;23.73;;;5.10;99.90;;;;;;5013384;28;20187;-67
2022/12/07 11:26:23;;;;;;;38.30;25.43;;;5.00;99.90;;;;;;5034313;28;20174;-67
2022/12/07 11:29:13;;;;;;;39.00;24.53;;;4.90;99.90;;;;;;5034017;28;20237;-67
2022/12/07 11:31:59;;;;;;;38.37;23.43;;;4.90;99.90;;;;;;5034080;28;20660;-67
2022/12/07 11:34:44;;;;;;;36.17;21.67;;;5.00;99.90;;;;;;5034127;28;20169;-67
2022/12/07 11:37:28;;;;;;;32.63;22.33;;;5.00;99.90;;;;;;5032532;28;20233;-67
2022/12/07 11:39:59;;;;;;;30.53;19.17;;;5.00;99.90;;;;;;5034234;28;20189;-67
2022/12/07 11:42:35;;;;;;;30.33;19.67;;;5.00;99.90;;;;;;5033858;28;20214;-67
2022/12/07 11:45:15;;;;;;;31.10;19.20;;;5.10;99.90;;;;;;5032643;28;20517;-67
2022/12/07 11:47:59;;;;;;;29.37;18.90;;;5.10;99.90;;;;;;5032642;28;20194;-67
2022/12/07 11:50:30;;;;;;;28.37;17.40;;;5.20;99.90;;;;;;5034468;28;20212;-67
2022/12/07 11:53:07;;;;;;;24.43;17.97;;;5.10;99.90;;;;;;5034076;28;20198;-67
2022/12/07 11:55:45;;;;;;;29.90;17.85;;;5.20;99.90;;;;;;5033705;28;20616;-67
2022/12/07 11:58:36;;;;;;;23.17;16.63;;;5.20;99.90;;;;;;5033740;28;20454;-67
2022/12/07 12:01:22;;;;;;;28.27;16.63;;;5.20;99.90;;;;;;5033900;28;20206;-67
2022/12/07 12:04:10;;;;;;;27.83;17.10;;;5.20;99.90;;;;;;5033754;28;20575;-67
2022/12/07 12:06:42;;;;;;;26.33;14.97;;;5.20;99.90;;;;;;5033623;28;20166;-67
2022/12/07 12:09:50;;;;;;;30.00;16.63;;;5.20;99.90;;;;;;5033827;28;20631;-67
2022/12/07 12:12:42;;;;;;;23.77;16.20;;;5.20;99.90;;;;;;4992804;28;20212;-66
2022/12/07 12:15:33;;;;;;;21.03;15.87;;;5.20;99.90;;;;;;5004184;28;20183;-67
2022/12/07 12:18:13;;;;;;;30.27;17.13;;;5.20;99.90;;;;;;5033416;28;20620;-67
2022/12/07 12:20:57;;;;;;;18.43;14.90;;;5.10;99.90;;;;;;5033901;28;20165;-67
2022/12/07 12:23:37;;;;;;;20.47;14.83;;;5.10;99.90;;;;;;5033561;28;20162;-67
2022/12/07 12:26:06;;;;;;;20.20;14.50;;;5.20;99.90;;;;;;5032121;28;20175;-67
2022/12/07 12:28:52;;;;;;;19.03;15.40;;;5.20;99.90;;;;;;5033176;28;20272;-67
2022/12/07 12:31:20;;;;;;;21.97;14.27;;;5.10;99.90;;;;;;5033214;28;20203;-67
2022/12/07 12:33:48;;;;;;;20.07;14.10;;;5.20;99.90;;;;;;5033101;28;20707;-67
2022/12/07 12:36:27;;;;;;;19.37;14.97;;;5.20;99.90;;;;;;5033147;28;20294;-67
2022/12/07 12:38:58;;;;;;;27.97;15.30;;;5.20;99.90;;;;;;5033152;28;20218;-70
2022/12/07 12:44:19;;;;;;;18.97;13.67;;;5.20;99.90;;;;;;5033020;28;20263;-67
2022/12/07 12:46:48;;;;;;;20.33;12.80;;;5.30;99.90;;;;;;5015704;28;20207;-68
2022/12/07 12:49:20;;;;;;;18.03;12.50;;;5.30;99.90;;;;;;5033594;28;20175;-67
2022/12/07 12:51:51;;;;;;;16.80;11.73;;;5.30;99.90;;;;;;5033252;28;20253;-67
2022/12/07 12:54:32;;;;;;;15.57;11.43;;;5.30;99.90;;;;;;5033183;28;20198;-68
2022/12/07 12:57:26;;;;;;;15.30;12.20;;;5.30;99.90;;;;;;5033457;28;20210;-67
2022/12/07 12:59:52;;;;;;;15.57;10.27;;;5.30;99.90;;;;;;5033174;28;20167;-67
2022/12/07 13:02:53;;;;;;;14.17;10.37;;;5.40;99.90;;;;;;5033110;28;20752;-67
2022/12/07 13:05:21;;;;;;;12.77;9.70;;;5.40;99.90;;;;;;5019068;28;20171;-67